sensor_id;sensor_type;location;lat;lon;timestamp;pressure;altitude;pressure_sealevel;temperature;humidity
57948;BME280;43754;56.992;24.292;2023-02-01T00:02:31;99464.13;;;0.86;100.00
57948;BME280;43754;56.992;24.292;2023-02-01T00:05:04;99454.53;;;0.85;100.00
57948;BME280;43754;56.992;24.292;2023-02-01T00:07:37;99465.38;;;0.82;100.00
57948;BME280;43754;56.992;24.292;2023-02-01T00:10:10;99459.81;;;0.85;100.00
57948;BME280;43754;56.992;24.292;2023-02-01T00:12:43;99461.47;;;0.86;100.00
57948;BME280;43754;56.992;24.292;2023-02-01T00:15:16;99451.59;;;0.88;100.00
57948;BME280;43754;56.992;24.292;2023-02-01T00:17:48;99442.88;;;0.87;100.00
57948;BME280;43754;56.992;24.292;2023-02-01T00:20:20;99445.66;;;0.86;100.00
57948;BME280;43754;56.992;24.292;2023-02-01T00:22:52;99440.25;;;0.87;100.00
57948;BME280;43754;56.992;24.292;2023-02-01T00:25:24;99441.72;;;0.90;100.00
57948;BME280;43754;56.992;24.292;2023-02-01T00:27:57;99437.28;;;0.90;100.00
57948;BME280;43754;56.992;24.292;2023-02-01T00:30:31;99439.41;;;0.87;100.00
57948;BME280;43754;56.992;24.292;2023-02-01T00:33:03;99435.09;;;0.86;100.00
57948;BME280;43754;56.992;24.292;2023-02-01T00:35:35;99426.75;;;0.90;100.00
57948;BME280;43754;56.992;24.292;2023-02-01T00:38:07;99424.09;;;0.90;100.00
57948;BME280;43754;56.992;24.292;2023-02-01T00:40:39;99418.44;;;0.85;100.00
57948;BME280;43754;56.992;24.292;2023-02-01T00:43:12;99413.16;;;0.85;100.00
57948;BME280;43754;56.992;24.292;2023-02-01T00:45:45;99412.56;;;0.91;100.00
57948;BME280;43754;56.992;24.292;2023-02-01T00:48:17;99408.47;;;0.97;100.00
57948;BME280;43754;56.992;24.292;2023-02-01T00:50:49;99407.13;;;0.93;100.00
57948;BME280;43754;56.992;24.292;2023-02-01T00:53:21;99403.66;;;0.92;100.00
57948;BME280;43754;56.992;24.292;2023-02-01T00:55:53;99391.00;;;0.96;100.00
57948;BME280;43754;56.992;24.292;2023-02-01T00:58:27;99393.50;;;0.98;100.00
57948;BME280;43754;56.992;24.292;2023-02-01T01:01:04;99387.56;;;0.96;100.00
57948;BME280;43754;56.992;24.292;2023-02-01T01:03:38;99381.28;;;0.97;100.00
57948;BME280;43754;56.992;24.292;2023-02-01T01:06:13;99384.34;;;0.92;100.00
57948;BME280;43754;56.992;24.292;2023-02-01T01:08:47;99378.94;;;0.93;100.00
57948;BME280;43754;56.992;24.292;2023-02-01T01:11:21;99373.97;;;0.90;100.00
57948;BME280;43754;56.992;24.292;2023-02-01T01:13:56;99369.38;;;0.92;100.00
57948;BME280;43754;56.992;24.292;2023-02-01T01:16:30;99365.91;;;0.92;100.00
57948;BME280;43754;56.992;24.292;2023-02-01T01:19:02;99362.16;;;0.95;100.00
57948;BME280;43754;56.992;24.292;2023-02-01T01:21:34;99373.81;;;0.92;100.00
57948;BME280;43754;56.992;24.292;2023-02-01T01:24:07;99368.19;;;0.87;100.00
57948;BME280;43754;56.992;24.292;2023-02-01T01:26:39;99369.53;;;0.91;100.00
57948;BME280;43754;56.992;24.292;2023-02-01T01:29:13;99370.38;;;0.91;100.00
57948;BME280;43754;56.992;24.292;2023-02-01T01:31:44;99361.91;;;0.88;100.00
57948;BME280;43754;56.992;24.292;2023-02-01T01:34:17;99359.97;;;0.90;100.00
57948;BME280;43754;56.992;24.292;2023-02-01T01:36:48;99356.19;;;0.92;100.00
57948;BME280;43754;56.992;24.292;2023-02-01T01:39:20;99360.16;;;0.97;100.00
57948;BME280;43754;56.992;24.292;2023-02-01T01:41:53;99353.09;;;0.97;100.00
57948;BME280;43754;56.992;24.292;2023-02-01T01:44:57;99355.28;;;1.02;100.00
57948;BME280;43754;56.992;24.292;2023-02-01T01:47:33;99351.28;;;0.98;100.00
57948;BME280;43754;56.992;24.292;2023-02-01T01:50:09;99351.28;;;0.98;100.00
57948;BME280;43754;56.992;24.292;2023-02-01T01:52:43;99346.38;;;1.03;100.00
57948;BME280;43754;56.992;24.292;2023-02-01T01:55:20;99347.34;;;1.02;100.00
57948;BME280;43754;56.992;24.292;2023-02-01T01:57:57;99343.88;;;1.01;100.00
57948;BME280;43754;56.992;24.292;2023-02-01T02:00:33;99341.94;;;1.03;100.00
57948;BME280;43754;56.992;24.292;2023-02-01T02:03:08;99332.16;;;0.96;100.00
57948;BME280;43754;56.992;24.292;2023-02-01T02:05:44;99331.31;;;0.95;100.00
57948;BME280;43754;56.992;24.292;2023-02-01T02:08:18;99326.88;;;0.96;100.00
57948;BME280;43754;56.992;24.292;2023-02-01T02:10:52;99321.75;;;0.94;100.00
57948;BME280;43754;56.992;24.292;2023-02-01T02:13:36;99318.66;;;0.99;100.00
57948;BME280;43754;56.992;24.292;2023-02-01T02:16:21;99325.88;;;0.97;100.00
57948;BME280;43754;56.992;24.292;2023-02-01T02:19:15;99313.81;;;0.94;100.00
57948;BME280;43754;56.992;24.292;2023-02-01T02:22:02;99314.66;;;0.95;100.00
57948;BME280;43754;56.992;24.292;2023-02-01T02:24:59;99317.28;;;0.95;100.00
57948;BME280;43754;56.992;24.292;2023-02-01T02:27:46;99306.06;;;0.92;100.00
57948;BME280;43754;56.992;24.292;2023-02-01T02:30:57;99295.50;;;0.92;100.00
57948;BME280;43754;56.992;24.292;2023-02-01T02:33:42;99293.38;;;0.96;100.00
57948;BME280;43754;56.992;24.292;2023-02-01T02:36:26;99293.09;;;0.99;100.00
57948;BME280;43754;56.992;24.292;2023-02-01T02:39:07;99296.41;;;1.01;100.00
57948;BME280;43754;56.992;24.292;2023-02-01T02:41:49;99289.78;;;0.97;100.00
57948;BME280;43754;56.992;24.292;2023-02-01T02:44:47;99288.94;;;0.97;100.00
57948;BME280;43754;56.992;24.292;2023-02-01T02:47:44;99281.41;;;1.02;100.00
57948;BME280;43754;56.992;24.292;2023-02-01T02:50:24;99278.94;;;1.00;100.00
57948;BME280;43754;56.992;24.292;2023-02-01T02:53:19;99275.47;;;1.00;100.00
57948;BME280;43754;56.992;24.292;2023-02-01T02:56:12;99269.50;;;0.98;100.00
57948;BME280;43754;56.992;24.292;2023-02-01T02:59:03;99270.47;;;0.97;100.00
57948;BME280;43754;56.992;24.292;2023-02-01T03:01:54;99264.16;;;0.89;100.00
57948;BME280;43754;56.992;24.292;2023-02-01T03:04:45;99259.88;;;0.88;100.00
57948;BME280;43754;56.992;24.292;2023-02-01T03:10:32;99264.81;;;0.83;100.00
57948;BME280;43754;56.992;24.292;2023-02-01T03:13:10;99260.88;;;0.87;100.00
57948;BME280;43754;56.992;24.292;2023-02-01T03:15:47;99260.38;;;0.92;100.00
57948;BME280;43754;56.992;24.292;2023-02-01T03:18:28;99257.91;;;0.90;100.00
57948;BME280;43754;56.992;24.292;2023-02-01T03:21:06;99264.84;;;0.91;100.00
57948;BME280;43754;56.992;24.292;2023-02-01T03:23:42;99257.22;;;0.88;100.00
57948;BME280;43754;56.992;24.292;2023-02-01T03:26:19;99248.81;;;0.85;100.00
57948;BME280;43754;56.992;24.292;2023-02-01T03:28:56;99258.53;;;0.84;100.00
57948;BME280;43754;56.992;24.292;2023-02-01T03:31:32;99249.63;;;0.85;100.00
57948;BME280;43754;56.992;24.292;2023-02-01T03:34:04;99253.75;;;0.88;100.00
57948;BME280;43754;56.992;24.292;2023-02-01T03:36:40;99257.53;;;0.85;100.00
57948;BME280;43754;56.992;24.292;2023-02-01T03:39:17;99256.56;;;0.86;100.00
57948;BME280;43754;56.992;24.292;2023-02-01T03:41:56;99254.75;;;0.87;100.00
57948;BME280;43754;56.992;24.292;2023-02-01T03:44:32;99258.22;;;0.87;100.00
57948;BME280;43754;56.992;24.292;2023-02-01T03:47:09;99254.25;;;0.83;100.00
57948;BME280;43754;56.992;24.292;2023-02-01T03:49:45;99252.41;;;0.84;100.00
57948;BME280;43754;56.992;24.292;2023-02-01T03:52:22;99254.06;;;0.85;100.00
57948;BME280;43754;56.992;24.292;2023-02-01T03:54:56;99249.50;;;0.87;100.00
57948;BME280;43754;56.992;24.292;2023-02-01T03:57:33;99251.28;;;0.86;100.00
57948;BME280;43754;56.992;24.292;2023-02-01T04:00:09;99239.09;;;0.85;100.00
57948;BME280;43754;56.992;24.292;2023-02-01T04:02:46;99240.75;;;0.86;100.00
57948;BME280;43754;56.992;24.292;2023-02-01T04:05:18;99238.94;;;0.87;100.00
57948;BME280;43754;56.992;24.292;2023-02-01T04:07:58;99238.31;;;0.93;100.00
57948;BME280;43754;56.992;24.292;2023-02-01T04:10:30;99229.56;;;0.92;100.00
57948;BME280;43754;56.992;24.292;2023-02-01T04:13:04;99234.53;;;0.96;100.00
57948;BME280;43754;56.992;24.292;2023-02-01T04:15:36;99232.06;;;0.94;100.00
57948;BME280;43754;56.992;24.292;2023-02-01T04:18:08;99233.03;;;0.93;100.00
57948;BME280;43754;56.992;24.292;2023-02-01T04:20:40;99226.91;;;0.92;100.00
57948;BME280;43754;56.992;24.292;2023-02-01T04:23:12;99223.31;;;0.93;100.00
57948;BME280;43754;56.992;24.292;2023-02-01T04:25:44;99225.13;;;0.93;100.00
57948;BME280;43754;56.992;24.292;2023-02-01T04:28:17;99218.19;;;0.92;100.00
57948;BME280;43754;56.992;24.292;2023-02-01T04:30:49;99216.53;;;0.91;100.00
57948;BME280;43754;56.992;24.292;2023-02-01T04:33:21;99217.00;;;0.86;100.00
57948;BME280;43754;56.992;24.292;2023-02-01T04:35:54;99215.03;;;0.88;100.00
57948;BME280;43754;56.992;24.292;2023-02-01T04:38:26;99216.69;;;0.89;100.00
57948;BME280;43754;56.992;24.292;2023-02-01T04:41:01;99201.69;;;0.90;100.00
57948;BME280;43754;56.992;24.292;2023-02-01T04:43:34;99203.34;;;0.91;100.00
57948;BME280;43754;56.992;24.292;2023-02-01T04:46:06;99207.47;;;0.93;100.00
57948;BME280;43754;56.992;24.292;2023-02-01T04:48:38;99197.75;;;0.94;100.00
57948;BME280;43754;56.992;24.292;2023-02-01T04:51:10;99204.19;;;0.91;100.00
57948;BME280;43754;56.992;24.292;2023-02-01T04:53:42;99211.94;;;0.93;100.00
57948;BME280;43754;56.992;24.292;2023-02-01T04:56:14;99209.59;;;0.90;100.00
57948;BME280;43754;56.992;24.292;2023-02-01T04:58:48;99206.66;;;0.93;100.00
57948;BME280;43754;56.992;24.292;2023-02-01T05:01:20;99203.34;;;0.91;100.00
57948;BME280;43754;56.992;24.292;2023-02-01T05:03:52;99206.97;;;0.90;100.00
57948;BME280;43754;56.992;24.292;2023-02-01T05:06:24;99208.31;;;0.94;100.00
57948;BME280;43754;56.992;24.292;2023-02-01T05:08:56;99207.00;;;0.98;100.00
57948;BME280;43754;56.992;24.292;2023-02-01T05:11:28;99201.22;;;0.95;100.00
57948;BME280;43754;56.992;24.292;2023-02-01T05:14:20;99201.22;;;0.95;100.00
57948;BME280;43754;56.992;24.292;2023-02-01T05:16:52;99198.59;;;0.95;100.00
57948;BME280;43754;56.992;24.292;2023-02-01T05:19:25;99193.00;;;0.98;100.00
57948;BME280;43754;56.992;24.292;2023-02-01T05:21:57;99192.34;;;0.96;100.00
57948;BME280;43754;56.992;24.292;2023-02-01T05:24:29;99204.53;;;0.97;100.00
57948;BME280;43754;56.992;24.292;2023-02-01T05:27:01;99198.97;;;1.00;100.00
57948;BME280;43754;56.992;24.292;2023-02-01T05:29:34;99186.69;;;0.90;100.00
57948;BME280;43754;56.992;24.292;2023-02-01T05:32:06;99191.81;;;0.92;100.00
57948;BME280;43754;56.992;24.292;2023-02-01T05:34:52;99184.72;;;0.92;100.00
57948;BME280;43754;56.992;24.292;2023-02-01T05:37:24;99194.94;;;0.87;100.00
57948;BME280;43754;56.992;24.292;2023-02-01T05:39:56;99186.69;;;0.90;100.00
57948;BME280;43754;56.992;24.292;2023-02-01T05:42:28;99192.94;;;0.89;100.00
57948;BME280;43754;56.992;24.292;2023-02-01T05:45:02;99184.91;;;0.91;100.00
57948;BME280;43754;56.992;24.292;2023-02-01T05:47:34;99188.00;;;0.86;100.00
57948;BME280;43754;56.992;24.292;2023-02-01T05:50:07;99178.28;;;0.87;100.00
57948;BME280;43754;56.992;24.292;2023-02-01T05:52:39;99175.47;;;0.88;100.00
57948;BME280;43754;56.992;24.292;2023-02-01T05:55:11;99174.94;;;0.85;100.00
57948;BME280;43754;56.992;24.292;2023-02-01T05:57:43;99187.16;;;0.86;100.00
57948;BME280;43754;56.992;24.292;2023-02-01T06:00:17;99180.59;;;0.90;100.00
57948;BME280;43754;56.992;24.292;2023-02-01T06:02:52;99181.41;;;0.90;100.00
57948;BME280;43754;56.992;24.292;2023-02-01T06:05:24;99181.94;;;0.94;100.00
57948;BME280;43754;56.992;24.292;2023-02-01T06:07:57;99188.56;;;0.98;100.00
57948;BME280;43754;56.992;24.292;2023-02-01T06:10:30;99184.72;;;0.92;100.00
57948;BME280;43754;56.992;24.292;2023-02-01T06:13:02;99179.44;;;0.92;100.00
57948;BME280;43754;56.992;24.292;2023-02-01T06:15:35;99175.81;;;0.93;100.00
57948;BME280;43754;56.992;24.292;2023-02-01T06:18:09;99173.34;;;0.92;100.00
57948;BME280;43754;56.992;24.292;2023-02-01T06:20:41;99168.22;;;0.90;100.00
57948;BME280;43754;56.992;24.292;2023-02-01T06:23:13;99172.88;;;0.97;100.00
57948;BME280;43754;56.992;24.292;2023-02-01T06:25:45;99173.03;;;0.95;100.00
57948;BME280;43754;56.992;24.292;2023-02-01T06:28:17;99172.88;;;0.97;100.00
57948;BME280;43754;56.992;24.292;2023-02-01T06:30:50;99182.28;;;0.99;100.00
57948;BME280;43754;56.992;24.292;2023-02-01T06:33:23;99186.75;;;0.99;100.00
57948;BME280;43754;56.992;24.292;2023-02-01T06:35:58;99184.91;;;0.91;100.00
57948;BME280;43754;56.992;24.292;2023-02-01T06:38:31;99177.59;;;0.85;100.00
57948;BME280;43754;56.992;24.292;2023-02-01T06:41:08;99192.59;;;0.84;100.00
57948;BME280;43754;56.992;24.292;2023-02-01T06:43:40;99191.97;;;0.90;100.00
57948;BME280;43754;56.992;24.292;2023-02-01T06:46:14;99183.75;;;0.93;100.00
57948;BME280;43754;56.992;24.292;2023-02-01T06:48:46;99193.34;;;1.03;100.00
57948;BME280;43754;56.992;24.292;2023-02-01T06:51:23;99190.41;;;1.06;100.00
57948;BME280;43754;56.992;24.292;2023-02-01T06:53:56;99188.91;;;1.03;100.00
57948;BME280;43754;56.992;24.292;2023-02-01T06:56:28;99180.53;;;1.08;100.00
57948;BME280;43754;56.992;24.292;2023-02-01T06:59:03;99179.84;;;1.06;100.00
57948;BME280;43754;56.992;24.292;2023-02-01T07:01:36;99181.50;;;1.07;100.00
57948;BME280;43754;56.992;24.292;2023-02-01T07:04:10;99177.25;;;1.14;100.00
57948;BME280;43754;56.992;24.292;2023-02-01T07:06:42;99172.66;;;1.16;100.00
57948;BME280;43754;56.992;24.292;2023-02-01T07:09:14;99170.84;;;1.16;100.00
57948;BME280;43754;56.992;24.292;2023-02-01T07:11:46;99167.88;;;1.19;100.00
57948;BME280;43754;56.992;24.292;2023-02-01T07:14:18;99169.31;;;1.14;100.00
57948;BME280;43754;56.992;24.292;2023-02-01T07:16:52;99165.72;;;1.15;100.00
57948;BME280;43754;56.992;24.292;2023-02-01T07:19:24;99168.50;;;1.13;100.00
57948;BME280;43754;56.992;24.292;2023-02-01T07:21:56;99172.28;;;1.11;100.00
57948;BME280;43754;56.992;24.292;2023-02-01T07:24:28;99166.69;;;1.14;100.00
57948;BME280;43754;56.992;24.292;2023-02-01T07:27:00;99170.03;;;1.24;100.00
57948;BME280;43754;56.992;24.292;2023-02-01T07:29:32;99170.22;;;1.30;100.00
57948;BME280;43754;56.992;24.292;2023-02-01T07:32:05;99163.63;;;1.34;100.00
57948;BME280;43754;56.992;24.292;2023-02-01T07:34:37;99161.66;;;1.28;100.00
57948;BME280;43754;56.992;24.292;2023-02-01T07:37:09;99168.63;;;1.37;100.00
57948;BME280;43754;56.992;24.292;2023-02-01T07:39:41;99164.31;;;1.36;100.00
57948;BME280;43754;56.992;24.292;2023-02-01T07:42:13;99167.78;;;1.37;100.00
57948;BME280;43754;56.992;24.292;2023-02-01T07:44:45;99163.13;;;1.31;100.00
57948;BME280;43754;56.992;24.292;2023-02-01T07:47:18;99157.69;;;1.32;100.00
57948;BME280;43754;56.992;24.292;2023-02-01T07:49:51;99154.88;;;1.34;100.00
57948;BME280;43754;56.992;24.292;2023-02-01T07:52:23;99154.59;;;1.37;100.00
57948;BME280;43754;56.992;24.292;2023-02-01T07:54:55;99147.16;;;1.41;100.00
57948;BME280;43754;56.992;24.292;2023-02-01T07:57:27;99151.13;;;1.45;100.00
57948;BME280;43754;56.992;24.292;2023-02-01T07:59:59;99153.31;;;1.49;100.00
57948;BME280;43754;56.992;24.292;2023-02-01T08:02:51;99154.78;;;1.52;100.00
57948;BME280;43754;56.992;24.292;2023-02-01T08:05:23;99156.59;;;1.51;100.00
57948;BME280;43754;56.992;24.292;2023-02-01T08:07:55;99145.72;;;1.46;100.00
57948;BME280;43754;56.992;24.292;2023-02-01T08:10:27;99152.13;;;1.52;100.00
57948;BME280;43754;56.992;24.292;2023-02-01T08:12:59;99142.91;;;1.56;100.00
57948;BME280;43754;56.992;24.292;2023-02-01T08:15:31;99153.00;;;1.60;100.00
57948;BME280;43754;56.992;24.292;2023-02-01T08:18:05;99156.63;;;1.67;100.00
57948;BME280;43754;56.992;24.292;2023-02-01T08:20:37;99159.59;;;1.64;100.00
57948;BME280;43754;56.992;24.292;2023-02-01T08:23:12;99159.44;;;1.66;100.00
57948;BME280;43754;56.992;24.292;2023-02-01T08:25:44;99158.28;;;1.68;100.00
57948;BME280;43754;56.992;24.292;2023-02-01T08:28:16;99154.50;;;1.71;100.00
57948;BME280;43754;56.992;24.292;2023-02-01T08:30:48;99153.50;;;1.64;100.00
57948;BME280;43754;56.992;24.292;2023-02-01T08:33:22;99156.63;;;1.67;100.00
57948;BME280;43754;56.992;24.292;2023-02-01T08:35:54;99153.84;;;1.77;100.00
57948;BME280;43754;56.992;24.292;2023-02-01T08:38:26;99154.00;;;1.75;100.00
57948;BME280;43754;56.992;24.292;2023-02-01T08:40:57;99158.63;;;1.65;100.00
57948;BME280;43754;56.992;24.292;2023-02-01T08:43:35;99156.16;;;1.72;100.00
57948;BME280;43754;56.992;24.292;2023-02-01T08:46:08;99157.16;;;1.79;100.00
57948;BME280;43754;56.992;24.292;2023-02-01T08:48:42;99156.00;;;1.81;100.00
57948;BME280;43754;56.992;24.292;2023-02-01T08:51:16;99153.50;;;1.80;100.00
57948;BME280;43754;56.992;24.292;2023-02-01T08:53:49;99156.69;;;1.83;100.00
57948;BME280;43754;56.992;24.292;2023-02-01T08:56:21;99157.47;;;1.84;100.00
57948;BME280;43754;56.992;24.292;2023-02-01T08:58:53;99157.50;;;1.92;100.00
57948;BME280;43754;56.992;24.292;2023-02-01T09:01:25;99154.69;;;1.94;100.00
57948;BME280;43754;56.992;24.292;2023-02-01T09:03:58;99146.78;;;1.94;100.00
57948;BME280;43754;56.992;24.292;2023-02-01T09:06:31;99155.19;;;2.05;100.00
57948;BME280;43754;56.992;24.292;2023-02-01T09:09:03;99156.38;;;2.03;100.00
57948;BME280;43754;56.992;24.292;2023-02-01T09:11:35;99155.88;;;2.07;100.00
57948;BME280;43754;56.992;24.292;2023-02-01T09:14:07;99153.56;;;2.04;100.00
57948;BME280;43754;56.992;24.292;2023-02-01T09:16:39;99156.50;;;1.93;100.00
57948;BME280;43754;56.992;24.292;2023-02-01T09:19:12;99157.47;;;1.84;100.00
57948;BME280;43754;56.992;24.292;2023-02-01T09:21:56;99155.69;;;1.93;100.00
57948;BME280;43754;56.992;24.292;2023-02-01T09:24:28;99157.53;;;2.00;100.00
57948;BME280;43754;56.992;24.292;2023-02-01T09:27:00;99148.28;;;2.04;100.00
57948;BME280;43754;56.992;24.292;2023-02-01T09:29:32;99154.22;;;1.98;100.00
57948;BME280;43754;56.992;24.292;2023-02-01T09:32:05;99152.72;;;1.96;100.00
57948;BME280;43754;56.992;24.292;2023-02-01T09:34:39;99150.75;;;1.98;100.00
57948;BME280;43754;56.992;24.292;2023-02-01T09:37:11;99149.75;;;1.91;100.00
57948;BME280;43754;56.992;24.292;2023-02-01T09:39:43;99146.44;;;1.97;100.00
57948;BME280;43754;56.992;24.292;2023-02-01T09:42:42;99140.31;;;1.88;100.00
57948;BME280;43754;56.992;24.292;2023-02-01T09:45:22;99140.34;;;1.96;100.00
57948;BME280;43754;56.992;24.292;2023-02-01T09:48:01;99137.03;;;2.02;100.00
57948;BME280;43754;56.992;24.292;2023-02-01T09:50:38;99137.22;;;2.17;100.00
57948;BME280;43754;56.992;24.292;2023-02-01T09:53:15;99134.72;;;2.15;100.00
57948;BME280;43754;56.992;24.292;2023-02-01T09:55:51;99134.72;;;2.15;100.00
57948;BME280;43754;56.992;24.292;2023-02-01T09:58:28;99131.94;;;2.17;100.00
57948;BME280;43754;56.992;24.292;2023-02-01T10:01:03;99137.22;;;2.25;100.00
57948;BME280;43754;56.992;24.292;2023-02-01T10:03:36;99138.69;;;2.27;100.00
57948;BME280;43754;56.992;24.292;2023-02-01T10:06:35;99135.38;;;2.25;100.00
57948;BME280;43754;56.992;24.292;2023-02-01T10:09:25;99137.03;;;2.35;100.00
57948;BME280;43754;56.992;24.292;2023-02-01T10:12:36;99128.78;;;2.38;100.00
57948;BME280;43754;56.992;24.292;2023-02-01T10:15:20;99140.66;;;2.50;100.00
57948;BME280;43754;56.992;24.292;2023-02-01T10:18:18;99134.88;;;2.38;100.00
57948;BME280;43754;56.992;24.292;2023-02-01T10:21:00;99129.94;;;2.27;100.00
57948;BME280;43754;56.992;24.292;2023-02-01T10:23:57;99124.31;;;2.22;100.00
57948;BME280;43754;56.992;24.292;2023-02-01T10:26:51;99122.69;;;2.13;100.00
57948;BME280;43754;56.992;24.292;2023-02-01T10:29:32;99130.59;;;2.29;100.00
57948;BME280;43754;56.992;24.292;2023-02-01T10:32:13;99131.25;;;2.39;100.00
57948;BME280;43754;56.992;24.292;2023-02-01T10:34:48;99139.66;;;2.43;100.00
57948;BME280;43754;56.992;24.292;2023-02-01T10:37:30;99129.09;;;2.35;100.00
57948;BME280;43754;56.992;24.292;2023-02-01T10:40:15;99127.25;;;2.43;100.00
57948;BME280;43754;56.992;24.292;2023-02-01T10:57:26;99148.22;;;2.69;100.00
57948;BME280;43754;56.992;24.292;2023-02-01T11:00:03;99151.88;;;2.60;100.00
57948;BME280;43754;56.992;24.292;2023-02-01T11:02:35;99153.69;;;2.51;100.00
57948;BME280;43754;56.992;24.292;2023-02-01T11:05:09;99159.16;;;2.58;100.00
57948;BME280;43754;56.992;24.292;2023-02-01T11:07:46;99160.97;;;2.57;100.00
57948;BME280;43754;56.992;24.292;2023-02-01T11:10:37;99171.91;;;2.46;100.00
57948;BME280;43754;56.992;24.292;2023-02-01T11:13:14;99170.25;;;2.37;100.00
57948;BME280;43754;56.992;24.292;2023-02-01T11:15:55;99168.44;;;2.29;100.00
57948;BME280;43754;56.992;24.292;2023-02-01T11:18:29;99167.78;;;2.27;100.00
57948;BME280;43754;56.992;24.292;2023-02-01T11:21:02;99165.63;;;2.31;100.00
57948;BME280;43754;56.992;24.292;2023-02-01T11:23:40;99163.16;;;2.38;100.00
57948;BME280;43754;56.992;24.292;2023-02-01T11:26:20;99162.63;;;2.42;100.00
57948;BME280;43754;56.992;24.292;2023-02-01T11:28:58;99165.13;;;2.44;100.00
57948;BME280;43754;56.992;24.292;2023-02-01T11:31:33;99157.34;;;2.50;100.00
57948;BME280;43754;56.992;24.292;2023-02-01T11:34:08;99157.66;;;2.55;100.00
57948;BME280;43754;56.992;24.292;2023-02-01T11:36:45;99165.09;;;2.60;100.00
57948;BME280;43754;56.992;24.292;2023-02-01T11:39:23;99158.47;;;2.64;100.00
57948;BME280;43754;56.992;24.292;2023-02-01T11:42:00;99154.00;;;2.64;100.00
57948;BME280;43754;56.992;24.292;2023-02-01T11:44:37;99152.69;;;2.68;100.00
57948;BME280;43754;56.992;24.292;2023-02-01T11:47:23;99158.31;;;2.73;100.00
57948;BME280;43754;56.992;24.292;2023-02-01T11:49:56;99159.28;;;2.81;100.00
57948;BME280;43754;56.992;24.292;2023-02-01T11:52:42;99152.84;;;2.83;100.00
57948;BME280;43754;56.992;24.292;2023-02-01T11:55:38;99160.59;;;2.85;100.00
57948;BME280;43754;56.992;24.292;2023-02-01T11:58:32;99153.31;;;2.87;100.00
57948;BME280;43754;56.992;24.292;2023-02-01T12:01:30;99166.56;;;2.78;100.00
57948;BME280;43754;56.992;24.292;2023-02-01T12:04:36;99157.63;;;2.80;100.00
57948;BME280;43754;56.992;24.292;2023-02-01T12:07:17;99149.34;;;2.83;100.00
57948;BME280;43754;56.992;24.292;2023-02-01T12:10:00;99154.16;;;2.87;100.00
57948;BME280;43754;56.992;24.292;2023-02-01T12:12:42;99157.63;;;2.80;100.00
57948;BME280;43754;56.992;24.292;2023-02-01T12:15:26;99157.63;;;2.71;100.00
57948;BME280;43754;56.992;24.292;2023-02-01T12:21:06;99165.41;;;2.73;100.00
57948;BME280;43754;56.992;24.292;2023-02-01T12:23:54;99169.22;;;2.78;100.00
57948;BME280;43754;56.992;24.292;2023-02-01T12:26:50;99171.19;;;2.76;100.00
57948;BME280;43754;56.992;24.292;2023-02-01T12:29:35;99167.22;;;2.81;100.00
57948;BME280;43754;56.992;24.292;2023-02-01T12:32:25;99174.31;;;2.80;100.00
57948;BME280;43754;56.992;24.292;2023-02-01T12:35:16;99173.66;;;2.78;100.00
57948;BME280;43754;56.992;24.292;2023-02-01T12:38:11;99175.66;;;2.76;100.00
57948;BME280;43754;56.992;24.292;2023-02-01T12:41:02;99180.78;;;2.77;100.00
57948;BME280;43754;56.992;24.292;2023-02-01T12:43:41;99178.13;;;2.77;100.00
57948;BME280;43754;56.992;24.292;2023-02-01T12:46:16;99187.38;;;2.82;100.00
57948;BME280;43754;56.992;24.292;2023-02-01T12:48:54;99189.03;;;2.83;100.00
57948;BME280;43754;56.992;24.292;2023-02-01T12:51:34;99178.63;;;2.81;100.00
57948;BME280;43754;56.992;24.292;2023-02-01T12:54:12;99179.78;;;2.87;100.00
57948;BME280;43754;56.992;24.292;2023-02-01T12:56:48;99183.91;;;2.89;100.00
57948;BME280;43754;56.992;24.292;2023-02-01T12:59:26;99180.59;;;2.87;100.00
57948;BME280;43754;56.992;24.292;2023-02-01T13:02:06;99180.91;;;2.84;100.00
57948;BME280;43754;56.992;24.292;2023-02-01T13:04:52;99180.75;;;2.86;100.00
57948;BME280;43754;56.992;24.292;2023-02-01T13:07:31;99187.88;;;2.85;100.00
57948;BME280;43754;56.992;24.292;2023-02-01T13:10:13;99180.13;;;2.84;100.00
57948;BME280;43754;56.992;24.292;2023-02-01T13:12:51;99188.22;;;2.82;100.00
57948;BME280;43754;56.992;24.292;2023-02-01T13:15:28;99191.69;;;2.83;100.00
57948;BME280;43754;56.992;24.292;2023-02-01T13:18:03;99190.03;;;2.82;100.00
57948;BME280;43754;56.992;24.292;2023-02-01T13:20:43;99188.72;;;2.77;100.00
57948;BME280;43754;56.992;24.292;2023-02-01T13:23:24;99191.53;;;2.76;100.00
57948;BME280;43754;56.992;24.292;2023-02-01T13:25:58;99189.06;;;2.74;100.00
57948;BME280;43754;56.992;24.292;2023-02-01T13:28:42;99197.66;;;2.68;100.00
57948;BME280;43754;56.992;24.292;2023-02-01T13:31:33;99194.53;;;2.57;100.00
57948;BME280;43754;56.992;24.292;2023-02-01T13:34:38;99202.94;;;2.60;100.00
57948;BME280;43754;56.992;24.292;2023-02-01T13:37:26;99200.97;;;2.62;100.00
57948;BME280;43754;56.992;24.292;2023-02-01T13:40:17;99206.28;;;2.62;100.00
57948;BME280;43754;56.992;24.292;2023-02-01T13:42:56;99199.81;;;2.65;100.00
57948;BME280;43754;56.992;24.292;2023-02-01T13:45:31;99206.09;;;2.64;100.00
57948;BME280;43754;56.992;24.292;2023-02-01T13:48:06;99204.47;;;2.63;100.00
57948;BME280;43754;56.992;24.292;2023-02-01T13:50:40;99212.41;;;2.63;100.00
57948;BME280;43754;56.992;24.292;2023-02-01T13:53:17;99211.56;;;2.62;100.00
57948;BME280;43754;56.992;24.292;2023-02-01T13:55:58;99214.84;;;2.56;100.00
57948;BME280;43754;56.992;24.292;2023-02-01T13:58:33;99210.25;;;2.58;100.00
57948;BME280;43754;56.992;24.292;2023-02-01T14:01:35;99211.06;;;2.59;100.00
57948;BME280;43754;56.992;24.292;2023-02-01T14:04:46;99213.72;;;2.59;100.00